sensor_id;sensor_type;location;lat;lon;timestamp;temperature;humidity
17762;DHT22;9005;48.838;10.112;2023-07-08T00:00:18;18.80;44.60
17762;DHT22;9005;48.838;10.112;2023-07-08T00:02:45;18.80;45.20
17762;DHT22;9005;48.838;10.112;2023-07-08T00:05:14;18.70;45.30
17762;DHT22;9005;48.838;10.112;2023-07-08T00:07:41;18.70;45.10
17762;DHT22;9005;48.838;10.112;2023-07-08T00:10:12;18.70;45.50
17762;DHT22;9005;48.838;10.112;2023-07-08T00:12:39;18.60;45.40
17762;DHT22;9005;48.838;10.112;2023-07-08T00:15:09;18.60;45.40
17762;DHT22;9005;48.838;10.112;2023-07-08T00:17:36;18.60;46.00
17762;DHT22;9005;48.838;10.112;2023-07-08T00:20:10;18.60;45.90
17762;DHT22;9005;48.838;10.112;2023-07-08T00:22:38;18.50;46.30
17762;DHT22;9005;48.838;10.112;2023-07-08T00:25:06;18.50;46.10
17762;DHT22;9005;48.838;10.112;2023-07-08T00:27:33;18.50;46.80
17762;DHT22;9005;48.838;10.112;2023-07-08T00:30:00;18.50;46.90
17762;DHT22;9005;48.838;10.112;2023-07-08T00:32:28;18.40;46.60
17762;DHT22;9005;48.838;10.112;2023-07-08T00:34:55;18.40;47.10
17762;DHT22;9005;48.838;10.112;2023-07-08T00:37:22;18.30;47.80
17762;DHT22;9005;48.838;10.112;2023-07-08T00:39:49;18.30;46.70
17762;DHT22;9005;48.838;10.112;2023-07-08T00:42:18;18.30;47.60
17762;DHT22;9005;48.838;10.112;2023-07-08T00:44:45;18.30;47.60
17762;DHT22;9005;48.838;10.112;2023-07-08T00:47:14;18.20;47.80
17762;DHT22;9005;48.838;10.112;2023-07-08T00:49:46;18.20;48.40
17762;DHT22;9005;48.838;10.112;2023-07-08T00:52:17;18.10;49.00
17762;DHT22;9005;48.838;10.112;2023-07-08T00:54:44;18.10;49.30
17762;DHT22;9005;48.838;10.112;2023-07-08T00:57:11;18.10;49.40
17762;DHT22;9005;48.838;10.112;2023-07-08T00:59:43;17.90;55.20
17762;DHT22;9005;48.838;10.112;2023-07-08T01:02:13;18.00;50.20
17762;DHT22;9005;48.838;10.112;2023-07-08T01:04:50;18.00;50.20
17762;DHT22;9005;48.838;10.112;2023-07-08T01:07:17;17.90;50.00
17762;DHT22;9005;48.838;10.112;2023-07-08T01:09:49;17.90;50.40
17762;DHT22;9005;48.838;10.112;2023-07-08T01:12:20;17.90;50.70
17762;DHT22;9005;48.838;10.112;2023-07-08T01:14:51;17.90;50.30
17762;DHT22;9005;48.838;10.112;2023-07-08T01:17:20;17.90;50.00
17762;DHT22;9005;48.838;10.112;2023-07-08T01:19:49;17.90;49.80
17762;DHT22;9005;48.838;10.112;2023-07-08T01:22:18;18.00;49.50
17762;DHT22;9005;48.838;10.112;2023-07-08T01:24:45;19.30;49.40
17762;DHT22;9005;48.838;10.112;2023-07-08T01:27:14;18.00;48.60
17762;DHT22;9005;48.838;10.112;2023-07-08T01:29:41;18.10;48.60
17762;DHT22;9005;48.838;10.112;2023-07-08T01:32:11;18.10;48.80
17762;DHT22;9005;48.838;10.112;2023-07-08T01:34:39;18.10;48.70
17762;DHT22;9005;48.838;10.112;2023-07-08T01:37:09;18.10;49.30
17762;DHT22;9005;48.838;10.112;2023-07-08T01:39:38;18.10;49.80
17762;DHT22;9005;48.838;10.112;2023-07-08T01:42:05;18.00;49.80
17762;DHT22;9005;48.838;10.112;2023-07-08T01:44:33;17.90;50.40
17762;DHT22;9005;48.838;10.112;2023-07-08T01:47:07;17.90;51.20
17762;DHT22;9005;48.838;10.112;2023-07-08T01:49:38;17.90;51.30
17762;DHT22;9005;48.838;10.112;2023-07-08T01:52:07;17.80;51.30
17762;DHT22;9005;48.838;10.112;2023-07-08T01:54:34;17.80;52.00
17762;DHT22;9005;48.838;10.112;2023-07-08T01:57:02;17.70;51.80
17762;DHT22;9005;48.838;10.112;2023-07-08T01:59:29;17.70;56.80
17762;DHT22;9005;48.838;10.112;2023-07-08T02:04:24;17.60;51.90
17762;DHT22;9005;48.838;10.112;2023-07-08T02:06:52;17.70;53.50
17762;DHT22;9005;48.838;10.112;2023-07-08T02:09:18;17.60;53.80
17762;DHT22;9005;48.838;10.112;2023-07-08T02:11:45;17.50;54.20
17762;DHT22;9005;48.838;10.112;2023-07-08T02:14:13;17.50;54.40
17762;DHT22;9005;48.838;10.112;2023-07-08T02:16:40;17.50;54.20
17762;DHT22;9005;48.838;10.112;2023-07-08T02:19:07;17.40;54.00
17762;DHT22;9005;48.838;10.112;2023-07-08T02:21:33;17.50;54.90
17762;DHT22;9005;48.838;10.112;2023-07-08T02:24:00;17.40;54.90
17762;DHT22;9005;48.838;10.112;2023-07-08T02:26:27;17.40;54.90
17762;DHT22;9005;48.838;10.112;2023-07-08T02:28:57;17.40;55.00
17762;DHT22;9005;48.838;10.112;2023-07-08T02:31:26;17.40;55.30
17762;DHT22;9005;48.838;10.112;2023-07-08T02:33:53;17.40;55.10
17762;DHT22;9005;48.838;10.112;2023-07-08T02:36:20;17.40;55.40
17762;DHT22;9005;48.838;10.112;2023-07-08T02:38:47;17.40;55.40
17762;DHT22;9005;48.838;10.112;2023-07-08T02:41:14;17.40;56.30
17762;DHT22;9005;48.838;10.112;2023-07-08T02:43:41;17.30;55.80
17762;DHT22;9005;48.838;10.112;2023-07-08T02:46:08;17.30;56.10
17762;DHT22;9005;48.838;10.112;2023-07-08T02:48:36;17.30;56.90
17762;DHT22;9005;48.838;10.112;2023-07-08T02:51:04;17.20;56.80
17762;DHT22;9005;48.838;10.112;2023-07-08T02:53:31;17.20;57.20
17762;DHT22;9005;48.838;10.112;2023-07-08T02:55:58;17.20;57.70
17762;DHT22;9005;48.838;10.112;2023-07-08T02:58:25;17.20;57.60
17762;DHT22;9005;48.838;10.112;2023-07-08T03:00:52;17.20;57.00
17762;DHT22;9005;48.838;10.112;2023-07-08T03:03:19;17.20;57.30
17762;DHT22;9005;48.838;10.112;2023-07-08T03:05:55;17.20;57.20
17762;DHT22;9005;48.838;10.112;2023-07-08T03:08:22;17.30;56.70
17762;DHT22;9005;48.838;10.112;2023-07-08T03:10:54;17.30;56.20
17762;DHT22;9005;48.838;10.112;2023-07-08T03:13:22;17.30;55.80
17762;DHT22;9005;48.838;10.112;2023-07-08T03:15:49;17.40;55.10
17762;DHT22;9005;48.838;10.112;2023-07-08T03:18:15;17.50;54.40
17762;DHT22;9005;48.838;10.112;2023-07-08T03:20:42;17.60;55.00
17762;DHT22;9005;48.838;10.112;2023-07-08T03:23:12;17.70;54.10
17762;DHT22;9005;48.838;10.112;2023-07-08T03:25:39;17.70;54.00
17762;DHT22;9005;48.838;10.112;2023-07-08T03:28:06;17.70;54.90
17762;DHT22;9005;48.838;10.112;2023-07-08T03:30:39;17.60;55.40
17762;DHT22;9005;48.838;10.112;2023-07-08T03:33:06;17.60;55.40
17762;DHT22;9005;48.838;10.112;2023-07-08T03:35:33;17.60;55.30
17762;DHT22;9005;48.838;10.112;2023-07-08T03:37:59;17.60;55.00
17762;DHT22;9005;48.838;10.112;2023-07-08T03:40:28;17.60;55.10
17762;DHT22;9005;48.838;10.112;2023-07-08T03:42:54;17.60;55.10
17762;DHT22;9005;48.838;10.112;2023-07-08T03:45:21;17.60;55.30
17762;DHT22;9005;48.838;10.112;2023-07-08T03:47:48;17.60;54.90
17762;DHT22;9005;48.838;10.112;2023-07-08T03:50:18;17.30;54.20
17762;DHT22;9005;48.838;10.112;2023-07-08T03:52:45;17.70;54.70
17762;DHT22;9005;48.838;10.112;2023-07-08T03:55:12;17.80;53.80
17762;DHT22;9005;48.838;10.112;2023-07-08T03:57:41;17.80;53.40
17762;DHT22;9005;48.838;10.112;2023-07-08T04:00:09;17.90;52.40
17762;DHT22;9005;48.838;10.112;2023-07-08T04:02:37;18.00;53.00
17762;DHT22;9005;48.838;10.112;2023-07-08T04:05:05;18.00;52.70
17762;DHT22;9005;48.838;10.112;2023-07-08T04:07:33;18.00;52.40
17762;DHT22;9005;48.838;10.112;2023-07-08T04:10:00;18.10;51.80
17762;DHT22;9005;48.838;10.112;2023-07-08T04:12:27;18.10;51.30
17762;DHT22;9005;48.838;10.112;2023-07-08T04:14:55;18.10;51.10
17762;DHT22;9005;48.838;10.112;2023-07-08T04:17:21;18.20;51.20
17762;DHT22;9005;48.838;10.112;2023-07-08T04:19:49;18.20;51.70
17762;DHT22;9005;48.838;10.112;2023-07-08T04:22:16;18.30;51.50
17762;DHT22;9005;48.838;10.112;2023-07-08T04:24:43;18.30;51.30
17762;DHT22;9005;48.838;10.112;2023-07-08T04:27:13;18.30;50.90
17762;DHT22;9005;48.838;10.112;2023-07-08T04:29:41;18.40;50.50
17762;DHT22;9005;48.838;10.112;2023-07-08T04:32:09;18.50;50.20
17762;DHT22;9005;48.838;10.112;2023-07-08T04:34:36;18.50;49.20
17762;DHT22;9005;48.838;10.112;2023-07-08T04:37:03;18.70;49.70
17762;DHT22;9005;48.838;10.112;2023-07-08T04:39:30;18.80;49.70
17762;DHT22;9005;48.838;10.112;2023-07-08T04:41:57;18.70;49.20
17762;DHT22;9005;48.838;10.112;2023-07-08T04:44:24;18.80;49.20
17762;DHT22;9005;48.838;10.112;2023-07-08T04:46:54;18.80;50.20
17762;DHT22;9005;48.838;10.112;2023-07-08T04:49:24;18.80;50.40
17762;DHT22;9005;48.838;10.112;2023-07-08T04:51:57;18.80;50.30
17762;DHT22;9005;48.838;10.112;2023-07-08T04:54:24;18.80;50.10
17762;DHT22;9005;48.838;10.112;2023-07-08T04:56:50;18.80;50.10
17762;DHT22;9005;48.838;10.112;2023-07-08T04:59:20;18.90;50.20
17762;DHT22;9005;48.838;10.112;2023-07-08T05:01:47;18.90;49.50
17762;DHT22;9005;48.838;10.112;2023-07-08T05:04:16;18.90;50.60
17762;DHT22;9005;48.838;10.112;2023-07-08T05:06:44;18.90;50.30
17762;DHT22;9005;48.838;10.112;2023-07-08T05:09:11;19.00;51.40
17762;DHT22;9005;48.838;10.112;2023-07-08T05:11:38;18.90;51.90
17762;DHT22;9005;48.838;10.112;2023-07-08T05:14:05;18.90;51.90
17762;DHT22;9005;48.838;10.112;2023-07-08T05:16:33;18.90;52.30
17762;DHT22;9005;48.838;10.112;2023-07-08T05:19:00;18.90;52.50
17762;DHT22;9005;48.838;10.112;2023-07-08T05:21:29;18.90;53.10
17762;DHT22;9005;48.838;10.112;2023-07-08T05:24:00;18.90;54.20
17762;DHT22;9005;48.838;10.112;2023-07-08T05:26:26;18.90;53.90
17762;DHT22;9005;48.838;10.112;2023-07-08T05:28:53;19.00;52.80
17762;DHT22;9005;48.838;10.112;2023-07-08T05:31:20;19.00;52.90
17762;DHT22;9005;48.838;10.112;2023-07-08T05:33:47;19.10;52.80
17762;DHT22;9005;48.838;10.112;2023-07-08T05:36:13;19.20;53.20
17762;DHT22;9005;48.838;10.112;2023-07-08T05:38:40;19.30;51.30
17762;DHT22;9005;48.838;10.112;2023-07-08T05:41:08;19.40;54.10
17762;DHT22;9005;48.838;10.112;2023-07-08T05:43:35;19.60;55.30
17762;DHT22;9005;48.838;10.112;2023-07-08T05:46:02;19.70;53.70
17762;DHT22;9005;48.838;10.112;2023-07-08T05:48:29;19.80;53.10
17762;DHT22;9005;48.838;10.112;2023-07-08T05:50:56;19.90;52.40
17762;DHT22;9005;48.838;10.112;2023-07-08T05:53:22;20.00;51.30
17762;DHT22;9005;48.838;10.112;2023-07-08T05:55:50;20.10;50.20
17762;DHT22;9005;48.838;10.112;2023-07-08T05:58:18;20.20;48.70
17762;DHT22;9005;48.838;10.112;2023-07-08T06:00:45;20.50;47.60
17762;DHT22;9005;48.838;10.112;2023-07-08T06:03:12;20.50;48.50
17762;DHT22;9005;48.838;10.112;2023-07-08T06:05:39;20.60;48.60
17762;DHT22;9005;48.838;10.112;2023-07-08T06:08:06;20.80;49.00
17762;DHT22;9005;48.838;10.112;2023-07-08T06:10:34;20.90;49.20
17762;DHT22;9005;48.838;10.112;2023-07-08T06:13:00;21.00;49.20
17762;DHT22;9005;48.838;10.112;2023-07-08T06:15:29;21.10;49.80
17762;DHT22;9005;48.838;10.112;2023-07-08T06:17:55;21.20;49.50
17762;DHT22;9005;48.838;10.112;2023-07-08T06:20:26;21.30;49.70
17762;DHT22;9005;48.838;10.112;2023-07-08T06:22:52;21.40;49.10
17762;DHT22;9005;48.838;10.112;2023-07-08T06:25:19;21.50;48.50
17762;DHT22;9005;48.838;10.112;2023-07-08T06:27:46;21.60;48.50
17762;DHT22;9005;48.838;10.112;2023-07-08T06:30:13;21.70;48.40
17762;DHT22;9005;48.838;10.112;2023-07-08T06:32:41;21.90;47.50
17762;DHT22;9005;48.838;10.112;2023-07-08T06:57:14;23.60;43.30
17762;DHT22;9005;48.838;10.112;2023-07-08T06:59:40;23.50;43.10
17762;DHT22;9005;48.838;10.112;2023-07-08T07:02:08;23.50;43.30
17762;DHT22;9005;48.838;10.112;2023-07-08T07:04:35;23.50;44.30
17762;DHT22;9005;48.838;10.112;2023-07-08T07:07:03;23.40;44.50
17762;DHT22;9005;48.838;10.112;2023-07-08T07:09:30;23.60;45.70
17762;DHT22;9005;48.838;10.112;2023-07-08T07:11:57;23.60;45.40
17762;DHT22;9005;48.838;10.112;2023-07-08T07:14:23;23.80;45.20
17762;DHT22;9005;48.838;10.112;2023-07-08T07:16:50;23.80;45.50
17762;DHT22;9005;48.838;10.112;2023-07-08T07:19:17;24.00;44.80
17762;DHT22;9005;48.838;10.112;2023-07-08T07:21:44;24.10;43.80
17762;DHT22;9005;48.838;10.112;2023-07-08T07:24:12;24.10;42.60
17762;DHT22;9005;48.838;10.112;2023-07-08T08:01:02;25.50;37.80
17762;DHT22;9005;48.838;10.112;2023-07-08T08:03:29;25.50;38.70
17762;DHT22;9005;48.838;10.112;2023-07-08T08:05:56;25.50;38.00
17762;DHT22;9005;48.838;10.112;2023-07-08T08:08:23;25.70;38.20
17762;DHT22;9005;48.838;10.112;2023-07-08T08:10:50;25.80;37.70
17762;DHT22;9005;48.838;10.112;2023-07-08T08:13:16;26.00;35.90
17762;DHT22;9005;48.838;10.112;2023-07-08T08:15:44;26.00;33.20
17762;DHT22;9005;48.838;10.112;2023-07-08T08:18:11;26.00;32.70
17762;DHT22;9005;48.838;10.112;2023-07-08T08:20:38;25.70;32.00
17762;DHT22;9005;48.838;10.112;2023-07-08T08:23:05;25.60;32.10
17762;DHT22;9005;48.838;10.112;2023-07-08T08:25:33;25.40;31.90
17762;DHT22;9005;48.838;10.112;2023-07-08T08:27:59;25.20;32.00
17762;DHT22;9005;48.838;10.112;2023-07-08T08:30:26;25.00;32.60
17762;DHT22;9005;48.838;10.112;2023-07-08T08:32:54;24.90;32.20
17762;DHT22;9005;48.838;10.112;2023-07-08T08:35:21;24.80;31.80
17762;DHT22;9005;48.838;10.112;2023-07-08T08:37:48;24.70;32.60
17762;DHT22;9005;48.838;10.112;2023-07-08T08:40:16;24.70;32.70
17762;DHT22;9005;48.838;10.112;2023-07-08T08:42:45;24.70;33.00
17762;DHT22;9005;48.838;10.112;2023-07-08T08:45:16;24.70;32.80
17762;DHT22;9005;48.838;10.112;2023-07-08T08:47:48;24.70;33.20
17762;DHT22;9005;48.838;10.112;2023-07-08T08:50:35;24.60;33.60
17762;DHT22;9005;48.838;10.112;2023-07-08T08:53:11;24.60;33.60
17762;DHT22;9005;48.838;10.112;2023-07-08T08:58:23;24.70;33.20
17762;DHT22;9005;48.838;10.112;2023-07-08T09:00:57;24.70;34.50
17762;DHT22;9005;48.838;10.112;2023-07-08T09:03:34;24.70;34.60
17762;DHT22;9005;48.838;10.112;2023-07-08T09:06:13;24.80;34.70
17762;DHT22;9005;48.838;10.112;2023-07-08T09:08:40;24.80;34.50
17762;DHT22;9005;48.838;10.112;2023-07-08T09:11:17;24.70;34.50
17762;DHT22;9005;48.838;10.112;2023-07-08T09:13:45;24.80;34.00
17762;DHT22;9005;48.838;10.112;2023-07-08T09:16:17;24.80;34.30
17762;DHT22;9005;48.838;10.112;2023-07-08T09:18:52;25.00;35.30
17762;DHT22;9005;48.838;10.112;2023-07-08T09:21:26;25.20;35.00
17762;DHT22;9005;48.838;10.112;2023-07-08T09:23:57;25.40;34.40
17762;DHT22;9005;48.838;10.112;2023-07-08T09:26:29;25.60;32.40
17762;DHT22;9005;48.838;10.112;2023-07-08T09:28:57;25.80;32.60
17762;DHT22;9005;48.838;10.112;2023-07-08T09:31:25;26.00;32.20
17762;DHT22;9005;48.838;10.112;2023-07-08T09:33:53;26.10;31.40
17762;DHT22;9005;48.838;10.112;2023-07-08T09:36:24;26.20;31.60
17762;DHT22;9005;48.838;10.112;2023-07-08T09:38:51;26.40;31.20
17762;DHT22;9005;48.838;10.112;2023-07-08T09:41:29;26.60;30.00
17762;DHT22;9005;48.838;10.112;2023-07-08T09:44:21;26.80;30.00
17762;DHT22;9005;48.838;10.112;2023-07-08T09:46:51;26.80;28.60
17762;DHT22;9005;48.838;10.112;2023-07-08T09:49:29;26.80;28.40
17762;DHT22;9005;48.838;10.112;2023-07-08T09:51:59;26.70;27.60
17762;DHT22;9005;48.838;10.112;2023-07-08T09:54:27;26.60;28.60
17762;DHT22;9005;48.838;10.112;2023-07-08T09:56:58;26.70;29.10
17762;DHT22;9005;48.838;10.112;2023-07-08T09:59:30;27.00;28.00
17762;DHT22;9005;48.838;10.112;2023-07-08T10:02:00;26.90;28.20
17762;DHT22;9005;48.838;10.112;2023-07-08T10:04:28;27.10;27.20
17762;DHT22;9005;48.838;10.112;2023-07-08T10:06:55;27.20;27.80
17762;DHT22;9005;48.838;10.112;2023-07-08T10:09:24;27.20;27.80
17762;DHT22;9005;48.838;10.112;2023-07-08T10:11:56;27.40;26.80
17762;DHT22;9005;48.838;10.112;2023-07-08T10:14:27;27.60;26.00
17762;DHT22;9005;48.838;10.112;2023-07-08T10:16:55;27.80;26.00
17762;DHT22;9005;48.838;10.112;2023-07-08T10:19:22;28.20;26.50
17762;DHT22;9005;48.838;10.112;2023-07-08T10:21:59;28.60;26.30
17762;DHT22;9005;48.838;10.112;2023-07-08T10:24:40;29.10;24.60
17762;DHT22;9005;48.838;10.112;2023-07-08T10:27:15;29.50;23.60
17762;DHT22;9005;48.838;10.112;2023-07-08T10:29:53;29.70;23.10
17762;DHT22;9005;48.838;10.112;2023-07-08T10:32:28;29.60;22.40
17762;DHT22;9005;48.838;10.112;2023-07-08T10:35:04;29.40;22.50
17762;DHT22;9005;48.838;10.112;2023-07-08T10:37:42;29.10;23.00
17762;DHT22;9005;48.838;10.112;2023-07-08T10:40:23;28.90;23.40
17762;DHT22;9005;48.838;10.112;2023-07-08T10:43:13;28.70;23.90
17762;DHT22;9005;48.838;10.112;2023-07-08T10:45:49;28.40;23.60
17762;DHT22;9005;48.838;10.112;2023-07-08T10:48:35;28.10;24.30
17762;DHT22;9005;48.838;10.112;2023-07-08T10:51:15;28.00;25.00
17762;DHT22;9005;48.838;10.112;2023-07-08T10:53:55;27.90;24.70
17762;DHT22;9005;48.838;10.112;2023-07-08T10:56:31;27.80;24.90
17762;DHT22;9005;48.838;10.112;2023-07-08T11:02:33;27.90;24.80
17762;DHT22;9005;48.838;10.112;2023-07-08T11:05:17;28.00;25.30
17762;DHT22;9005;48.838;10.112;2023-07-08T11:07:53;28.30;25.20
17762;DHT22;9005;48.838;10.112;2023-07-08T11:10:25;28.60;24.70
17762;DHT22;9005;48.838;10.112;2023-07-08T11:13:00;28.80;24.50
17762;DHT22;9005;48.838;10.112;2023-07-08T11:15:31;29.10;24.90
17762;DHT22;9005;48.838;10.112;2023-07-08T11:18:04;29.40;24.00
17762;DHT22;9005;48.838;10.112;2023-07-08T11:20:38;29.60;23.60
17762;DHT22;9005;48.838;10.112;2023-07-08T11:23:19;29.80;23.60
17762;DHT22;9005;48.838;10.112;2023-07-08T11:25:52;30.00;23.50
17762;DHT22;9005;48.838;10.112;2023-07-08T11:28:23;30.20;22.90
17762;DHT22;9005;48.838;10.112;2023-07-08T11:30:51;30.60;23.30
17762;DHT22;9005;48.838;10.112;2023-07-08T11:33:23;31.20;21.90
17762;DHT22;9005;48.838;10.112;2023-07-08T11:35:52;31.90;20.60
17762;DHT22;9005;48.838;10.112;2023-07-08T11:38:22;32.90;18.90
17762;DHT22;9005;48.838;10.112;2023-07-08T11:40:51;33.90;17.40
17762;DHT22;9005;48.838;10.112;2023-07-08T11:43:19;34.80;16.50
17762;DHT22;9005;48.838;10.112;2023-07-08T11:45:49;35.60;15.90
17762;DHT22;9005;48.838;10.112;2023-07-08T11:48:20;36.30;13.50
17762;DHT22;9005;48.838;10.112;2023-07-08T11:50:50;36.00;13.90
17762;DHT22;9005;48.838;10.112;2023-07-08T11:53:34;35.70;13.70
17762;DHT22;9005;48.838;10.112;2023-07-08T11:56:02;35.30;13.50
17762;DHT22;9005;48.838;10.112;2023-07-08T11:58:31;35.20;13.30
17762;DHT22;9005;48.838;10.112;2023-07-08T12:01:04;35.10;13.20
17762;DHT22;9005;48.838;10.112;2023-07-08T12:03:34;35.30;14.00
17762;DHT22;9005;48.838;10.112;2023-07-08T12:06:01;35.90;14.40
17762;DHT22;9005;48.838;10.112;2023-07-08T12:08:34;36.80;13.00
17762;DHT22;9005;48.838;10.112;2023-07-08T12:11:03;37.00;12.80
17762;DHT22;9005;48.838;10.112;2023-07-08T12:13:30;37.10;12.20
17762;DHT22;9005;48.838;10.112;2023-07-08T12:15:57;37.30;12.30
17762;DHT22;9005;48.838;10.112;2023-07-08T12:18:28;37.60;12.00
17762;DHT22;9005;48.838;10.112;2023-07-08T12:20:58;37.60;11.40
17762;DHT22;9005;48.838;10.112;2023-07-08T12:23:27;37.70;11.60
17762;DHT22;9005;48.838;10.112;2023-07-08T12:25:56;37.70;11.30
17762;DHT22;9005;48.838;10.112;2023-07-08T12:28:23;37.30;10.90
17762;DHT22;9005;48.838;10.112;2023-07-08T12:30:51;36.80;11.30
17762;DHT22;9005;48.838;10.112;2023-07-08T12:33:27;36.30;11.40
17762;DHT22;9005;48.838;10.112;2023-07-08T12:35:55;35.80;12.40
17762;DHT22;9005;48.838;10.112;2023-07-08T12:38:26;35.50;11.70
17762;DHT22;9005;48.838;10.112;2023-07-08T12:40:55;35.50;11.70
17762;DHT22;9005;48.838;10.112;2023-07-08T12:43:22;35.70;11.70
17762;DHT22;9005;48.838;10.112;2023-07-08T12:45:49;36.20;12.00
17762;DHT22;9005;48.838;10.112;2023-07-08T12:48:15;36.70;10.60
17762;DHT22;9005;48.838;10.112;2023-07-08T12:50:44;36.60;10.20
17762;DHT22;9005;48.838;10.112;2023-07-08T12:53:11;35.80;10.90
17762;DHT22;9005;48.838;10.112;2023-07-08T12:55:39;35.50;11.30
17762;DHT22;9005;48.838;10.112;2023-07-08T12:58:09;35.50;11.50
17762;DHT22;9005;48.838;10.112;2023-07-08T13:00:40;35.70;11.00
17762;DHT22;9005;48.838;10.112;2023-07-08T13:03:12;35.80;11.70
17762;DHT22;9005;48.838;10.112;2023-07-08T13:05:40;36.20;10.20
17762;DHT22;9005;48.838;10.112;2023-07-08T13:08:11;36.50;11.00
17762;DHT22;9005;48.838;10.112;2023-07-08T13:10:39;37.10;10.10
17762;DHT22;9005;48.838;10.112;2023-07-08T13:13:11;37.80;8.60
17762;DHT22;9005;48.838;10.112;2023-07-08T13:15:40;37.40;8.90
17762;DHT22;9005;48.838;10.112;2023-07-08T13:18:14;36.70;9.70
17762;DHT22;9005;48.838;10.112;2023-07-08T13:20:42;36.00;10.20
17762;DHT22;9005;48.838;10.112;2023-07-08T13:23:11;35.00;10.70
17762;DHT22;9005;48.838;10.112;2023-07-08T13:25:38;33.80;11.60
17762;DHT22;9005;48.838;10.112;2023-07-08T13:28:15;33.30;12.50
17762;DHT22;9005;48.838;10.112;2023-07-08T13:30:50;33.10;13.20
17762;DHT22;9005;48.838;10.112;2023-07-08T13:33:18;33.10;13.30
17762;DHT22;9005;48.838;10.112;2023-07-08T13:35:46;33.30;13.50
17762;DHT22;9005;48.838;10.112;2023-07-08T13:38:17;33.40;13.30
17762;DHT22;9005;48.838;10.112;2023-07-08T13:40:46;33.60;13.20
17762;DHT22;9005;48.838;10.112;2023-07-08T13:43:13;33.70;13.10
17762;DHT22;9005;48.838;10.112;2023-07-08T13:45:44;33.90;12.70
17762;DHT22;9005;48.838;10.112;2023-07-08T13:48:26;33.90;12.40
17762;DHT22;9005;48.838;10.112;2023-07-08T13:51:01;33.90;12.90
17762;DHT22;9005;48.838;10.112;2023-07-08T13:53:42;33.90;12.20
17762;DHT22;9005;48.838;10.112;2023-07-08T13:56:13;33.80;12.40
17762;DHT22;9005;48.838;10.112;2023-07-08T13:58:43;33.70;12.20
17762;DHT22;9005;48.838;10.112;2023-07-08T14:01:15;33.40;13.00
17762;DHT22;9005;48.838;10.112;2023-07-08T14:03:42;33.30;14.00
17762;DHT22;9005;48.838;10.112;2023-07-08T14:06:13;33.30;14.40
17762;DHT22;9005;48.838;10.112;2023-07-08T14:08:41;33.20;14.70
17762;DHT22;9005;48.838;10.112;2023-07-08T14:11:08;33.30;14.70
17762;DHT22;9005;48.838;10.112;2023-07-08T14:13:35;33.30;14.90
17762;DHT22;9005;48.838;10.112;2023-07-08T14:16:03;33.50;14.90
17762;DHT22;9005;48.838;10.112;2023-07-08T14:18:31;33.90;15.00
17762;DHT22;9005;48.838;10.112;2023-07-08T14:20:58;33.90;14.60
17762;DHT22;9005;48.838;10.112;2023-07-08T14:23:25;34.60;14.20
17762;DHT22;9005;48.838;10.112;2023-07-08T14:25:53;35.50;14.00
17762;DHT22;9005;48.838;10.112;2023-07-08T14:28:19;36.70;12.40
17762;DHT22;9005;48.838;10.112;2023-07-08T14:30:47;37.90;11.20
17762;DHT22;9005;48.838;10.112;2023-07-08T14:33:14;39.00;10.50
17762;DHT22;9005;48.838;10.112;2023-07-08T14:35:41;40.00;10.30
17762;DHT22;9005;48.838;10.112;2023-07-08T14:38:10;40.90;8.20
17762;DHT22;9005;48.838;10.112;2023-07-08T14:40:39;41.60;7.80
17762;DHT22;9005;48.838;10.112;2023-07-08T14:43:12;41.80;6.40
17762;DHT22;9005;48.838;10.112;2023-07-08T14:45:41;41.20;6.80
17762;DHT22;9005;48.838;10.112;2023-07-08T14:48:10;40.50;7.10
17762;DHT22;9005;48.838;10.112;2023-07-08T14:50:37;40.00;7.60
17762;DHT22;9005;48.838;10.112;2023-07-08T14:53:05;39.90;7.40
17762;DHT22;9005;48.838;10.112;2023-07-08T14:55:32;40.20;7.00
17762;DHT22;9005;48.838;10.112;2023-07-08T14:57:59;40.60;7.50
17762;DHT22;9005;48.838;10.112;2023-07-08T15:00:27;41.20;6.70
17762;DHT22;9005;48.838;10.112;2023-07-08T15:02:54;41.40;7.20
17762;DHT22;9005;48.838;10.112;2023-07-08T15:05:23;41.60;6.40
17762;DHT22;9005;48.838;10.112;2023-07-08T15:07:50;41.40;7.00
17762;DHT22;9005;48.838;10.112;2023-07-08T15:10:18;41.30;7.10
17762;DHT22;9005;48.838;10.112;2023-07-08T15:12:45;41.20;7.40
17762;DHT22;9005;48.838;10.112;2023-07-08T15:15:17;41.20;7.20
17762;DHT22;9005;48.838;10.112;2023-07-08T15:17:45;41.50;6.90
17762;DHT22;9005;48.838;10.112;2023-07-08T15:20:14;41.60;6.30
17762;DHT22;9005;48.838;10.112;2023-07-08T15:22:42;41.60;6.80
17762;DHT22;9005;48.838;10.112;2023-07-08T15:25:10;41.50;5.70
17762;DHT22;9005;48.838;10.112;2023-07-08T15:27:38;40.70;5.90
17762;DHT22;9005;48.838;10.112;2023-07-08T15:30:14;40.10;6.70
17762;DHT22;9005;48.838;10.112;2023-07-08T15:32:41;39.30;7.20
17762;DHT22;9005;48.838;10.112;2023-07-08T15:35:14;38.80;7.10
17762;DHT22;9005;48.838;10.112;2023-07-08T15:37:42;38.70;7.40
17762;DHT22;9005;48.838;10.112;2023-07-08T15:40:09;38.80;7.50
17762;DHT22;9005;48.838;10.112;2023-07-08T15:42:39;39.00;7.20
17762;DHT22;9005;48.838;10.112;2023-07-08T15:45:20;39.20;7.30
17762;DHT22;9005;48.838;10.112;2023-07-08T15:47:48;39.60;8.20
17762;DHT22;9005;48.838;10.112;2023-07-08T15:50:18;40.00;7.40
17762;DHT22;9005;48.838;10.112;2023-07-08T15:52:46;40.60;7.60
17762;DHT22;9005;48.838;10.112;2023-07-08T15:55:16;41.10;7.10
17762;DHT22;9005;48.838;10.112;2023-07-08T15:57:47;41.40;7.10
17762;DHT22;9005;48.838;10.112;2023-07-08T16:00:18;41.70;6.50
17762;DHT22;9005;48.838;10.112;2023-07-08T16:02:49;41.90;6.70
17762;DHT22;9005;48.838;10.112;2023-07-08T16:05:19;42.10;5.90
17762;DHT22;9005;48.838;10.112;2023-07-08T16:07:46;42.00;6.90
17762;DHT22;9005;48.838;10.112;2023-07-08T16:10:13;41.90;6.60
17762;DHT22;9005;48.838;10.112;2023-07-08T16:12:40;41.80;6.80
17762;DHT22;9005;48.838;10.112;2023-07-08T16:15:13;41.70;6.70
17762;DHT22;9005;48.838;10.112;2023-07-08T16:17:40;41.60;6.80
17762;DHT22;9005;48.838;10.112;2023-07-08T16:20:15;41.10;6.80
17762;DHT22;9005;48.838;10.112;2023-07-08T16:22:44;40.20;7.40
17762;DHT22;9005;48.838;10.112;2023-07-08T16:25:13;39.30;8.00
17762;DHT22;9005;48.838;10.112;2023-07-08T16:27:41;38.20;8.40
17762;DHT22;9005;48.838;10.112;2023-07-08T16:30:12;37.10;9.50
17762;DHT22;9005;48.838;10.112;2023-07-08T16:32:39;36.50;9.80
17762;DHT22;9005;48.838;10.112;2023-07-08T16:35:07;36.00;10.40
17762;DHT22;9005;48.838;10.112;2023-07-08T16:37:34;35.60;10.60
17762;DHT22;9005;48.838;10.112;2023-07-08T16:40:03;35.30;10.90
17762;DHT22;9005;48.838;10.112;2023-07-08T16:42:30;35.10;10.90
17762;DHT22;9005;48.838;10.112;2023-07-08T16:44:56;34.90;11.10
17762;DHT22;9005;48.838;10.112;2023-07-08T16:47:23;34.20;11.50
17762;DHT22;9005;48.838;10.112;2023-07-08T16:49:50;33.30;11.90